Carp Lake, MI (49718)

10:04 AM EST on January 20, 2017 (GMT -0500)
North Levering MI | | Change Station
Active Advisory: Dense Fog Advisory

Elev 741 ft 45.67 °N, 84.79 °W | Updated 1 second ago

Fog
Fog
32.2 °F
Feels Like 32 °F
N
2.5
Wind Variable Wind from East
Gusts 5.4 mph

Today
High -- | Low -- °F
--% Chance of Precip.
Yesterday
High -- | Low -- °F
Precip. -- in
Pressure 29.80 in
Visibility 0.5 miles
Clouds Overcast 200 ft
Windchill 32 °F
Dew Point 30 °F
Humidity 92%
Rainfall 0.00 in
Snow Depth Not available.
8:12 AM 5:28 PM
Last Quarter, 43% visible
METAR KPLN 201454Z AUTO 10005KT 1/2SM FG OVC002 00/M01 A2977 RMK AO2 SLP090 I1001 I3002 T00001011 51004
Pressure 29.80 in
Visibility 0.5 miles
Clouds Overcast 200 ft
Windchill 32 °F
Dew Point 30 °F
Humidity 92%
Rainfall 0.00 in
Snow Depth Not available.
8:12 AM 5:28 PM
Last Quarter, 43% visible
METAR KPLN 201454Z AUTO 10005KT 1/2SM FG OVC002 00/M01 A2977 RMK AO2 SLP090 I1001 I3002 T00001011 51004

Get Your Daily Forecast Email!

Thanks for signing up!

Be on the lookout for a verification email in your inbox.

You'll start receiving the daily forecast at 8 AM.

×

10-Day Weather Forecast

Almanac

Astronomy

Jan. 20, 2017 Rise Set
Actual Time
Civil Twilight
Nautical Twilight
Astronomical Twilight
Moon
Length of Visible Light
Length of Day
Tomorrow will be .
, % of the Moon is Illuminated

Today's Extremes

State Highs State Lows

Community

WunderPhotos

Upload Photos

1,962,540 photos uploaded!

WunderBlog® & News

Nearby

Air Quality

  Air Quality AQ Index Pollutant
Not available.

Snow Depth

Station Depth Elevation

Earthquake Activity

City Distance Mag. Time & Date
Minimum magnitude displayed is 2.5.

Coastal Water Temperatures

Place Temperature

Stations

Nearby Weather Stations

Station Location Temp. Windchill Dew Point Humidity Wind Precip. Elev Updated Type
                   

Watches & Warnings

Dense Fog Advisory
Issued: 3:09 AM EST Jan. 20, 2017 – National Weather Service

... Dense fog advisory in effect until 11 am EST this morning...

The National Weather Service in Gaylord has issued a dense fog
advisory... which is in effect until 11 am EST this morning.

* Visibility... areas of poor visibility. One quarter of a mile
or less.

* Impacts... difficult driving conditions. Also... some
temperatures were at or just below freezing which will allow
the fog to freeze on untreated surfaces.

Precautionary/preparedness actions...

A dense fog advisory means visibilities will frequently be
reduced to less than one quarter mile. If driving... slow down...
use your headlights... and leave plenty of distance from the car
ahead of you.